createdAt,value
2023-09-13T00:01:32.010Z,100.00
2023-09-13T00:03:59.576Z,100.00
2023-09-13T00:06:26.379Z,100.00
2023-09-13T00:08:53.026Z,100.00
2023-09-13T00:11:19.655Z,100.00
2023-09-13T00:13:46.302Z,100.00
2023-09-13T00:16:13.228Z,100.00
2023-09-13T00:18:40.101Z,100.00
2023-09-13T00:21:10.119Z,100.00
2023-09-13T00:23:36.792Z,100.00
2023-09-13T00:26:06.234Z,100.00
2023-09-13T00:28:33.323Z,100.00
2023-09-13T00:31:00.200Z,100.00
2023-09-13T00:33:27.062Z,100.00
2023-09-13T00:35:57.664Z,100.00
2023-09-13T00:38:24.338Z,100.00
2023-09-13T00:40:51.237Z,100.00
2023-09-13T00:43:18.055Z,100.00
2023-09-13T00:45:45.396Z,100.00
2023-09-13T00:48:15.201Z,100.00
2023-09-13T00:53:19.165Z,100.00
2023-09-13T00:55:47.990Z,100.00
2023-09-13T00:58:14.823Z,100.00
2023-09-13T01:00:41.619Z,100.00
2023-09-13T01:03:08.505Z,100.00
2023-09-13T01:05:36.703Z,100.00
2023-09-13T01:08:04.431Z,100.00
2023-09-13T01:10:31.262Z,100.00
2023-09-13T01:12:58.102Z,100.00
2023-09-13T01:15:28.823Z,100.00
2023-09-13T01:18:04.588Z,100.00
2023-09-13T01:20:31.497Z,100.00
2023-09-13T01:23:23.756Z,100.00
2023-09-13T01:26:04.950Z,100.00
2023-09-13T01:28:35.626Z,100.00
2023-09-13T01:31:06.804Z,100.00
2023-09-13T01:33:33.713Z,100.00
2023-09-13T01:36:01.033Z,100.00
2023-09-13T01:38:28.604Z,100.00
2023-09-13T01:41:03.297Z,100.00
2023-09-13T01:43:31.083Z,100.00
2023-09-13T01:45:58.613Z,100.00
2023-09-13T01:48:25.818Z,100.00
2023-09-13T01:50:54.267Z,100.00
2023-09-13T01:53:21.150Z,100.00
2023-09-13T01:55:48.029Z,100.00
2023-09-13T01:58:14.908Z,100.00
2023-09-13T02:00:42.243Z,100.00
2023-09-13T02:03:09.016Z,100.00
2023-09-13T02:05:35.724Z,100.00
2023-09-13T02:08:02.541Z,100.00
2023-09-13T02:10:29.251Z,100.00
2023-09-13T02:12:55.960Z,100.00
2023-09-13T02:15:22.793Z,100.00
2023-09-13T02:17:49.476Z,100.00
2023-09-13T02:20:16.236Z,100.00
2023-09-13T02:22:43.130Z,100.00
2023-09-13T02:25:10.005Z,100.00
2023-09-13T02:27:36.752Z,100.00
2023-09-13T02:30:09.878Z,100.00
2023-09-13T02:32:36.669Z,100.00
2023-09-13T02:35:03.907Z,100.00
2023-09-13T02:37:30.623Z,100.00
2023-09-13T02:39:59.429Z,100.00
2023-09-13T02:42:26.299Z,100.00
2023-09-13T02:44:53.034Z,100.00
2023-09-13T02:47:19.795Z,100.00
2023-09-13T02:49:46.594Z,100.00
2023-09-13T02:52:13.347Z,100.00
2023-09-13T02:54:40.252Z,100.00
2023-09-13T02:57:08.314Z,100.00
2023-09-13T02:59:35.040Z,100.00
2023-09-13T03:02:01.938Z,100.00
2023-09-13T03:04:29.517Z,100.00
2023-09-13T03:06:56.375Z,100.00
2023-09-13T03:09:23.193Z,100.00
2023-09-13T03:11:49.975Z,100.00
2023-09-13T03:14:16.844Z,100.00
2023-09-13T03:16:43.669Z,100.00
2023-09-13T03:19:11.937Z,100.00
2023-09-13T03:21:38.799Z,100.00
2023-09-13T03:24:06.650Z,100.00
2023-09-13T03:26:34.830Z,100.00
2023-09-13T03:29:01.632Z,100.00
2023-09-13T03:31:29.280Z,100.00
2023-09-13T03:33:57.332Z,100.00
2023-09-13T03:36:26.415Z,100.00
2023-09-13T03:38:53.201Z,100.00
2023-09-13T03:41:21.255Z,100.00
2023-09-13T03:43:48.495Z,100.00
2023-09-13T03:46:15.432Z,100.00
2023-09-13T03:48:42.256Z,100.00
2023-09-13T03:51:09.482Z,100.00
2023-09-13T03:53:37.025Z,100.00
2023-09-13T03:56:04.774Z,100.00
2023-09-13T03:58:31.690Z,100.00
2023-09-13T04:00:58.839Z,100.00
2023-09-13T04:03:25.872Z,100.00
2023-09-13T04:05:53.033Z,100.00
2023-09-13T04:08:19.992Z,100.00
2023-09-13T04:10:46.803Z,100.00
2023-09-13T04:13:13.689Z,100.00
2023-09-13T04:15:43.405Z,100.00
2023-09-13T04:18:10.187Z,100.00
2023-09-13T04:20:36.952Z,100.00
2023-09-13T04:23:03.811Z,100.00
2023-09-13T04:25:30.657Z,100.00
2023-09-13T04:27:57.383Z,100.00
2023-09-13T04:30:24.232Z,100.00
2023-09-13T04:32:51.008Z,100.00
2023-09-13T04:35:18.578Z,100.00
2023-09-13T04:37:45.342Z,100.00
2023-09-13T04:40:14.676Z,100.00
2023-09-13T04:42:55.665Z,100.00
2023-09-13T04:45:23.308Z,100.00
2023-09-13T04:47:50.395Z,100.00
2023-09-13T04:50:17.270Z,100.00
2023-09-13T04:52:44.205Z,100.00
2023-09-13T04:55:11.078Z,100.00
2023-09-13T04:57:37.961Z,100.00
2023-09-13T05:00:12.606Z,100.00
2023-09-13T05:02:39.805Z,100.00
2023-09-13T05:05:07.468Z,100.00
2023-09-13T05:07:34.256Z,100.00
2023-09-13T05:10:01.158Z,100.00
2023-09-13T05:12:27.906Z,100.00
2023-09-13T05:14:54.609Z,100.00
2023-09-13T05:17:21.344Z,100.00
2023-09-13T05:19:48.136Z,100.00
2023-09-13T05:22:15.211Z,100.00
2023-09-13T05:24:42.034Z,100.00
2023-09-13T05:27:08.750Z,100.00
2023-09-13T05:29:35.439Z,100.00
2023-09-13T05:32:02.397Z,100.00
2023-09-13T05:34:29.437Z,100.00
2023-09-13T05:36:56.888Z,100.00
2023-09-13T05:39:23.748Z,100.00
2023-09-13T05:41:51.223Z,100.00
2023-09-13T05:44:26.337Z,100.00
2023-09-13T05:46:56.218Z,100.00
2023-09-13T05:49:23.058Z,100.00
2023-09-13T05:51:50.686Z,100.00
2023-09-13T05:54:17.660Z,100.00
2023-09-13T05:56:45.208Z,100.00
2023-09-13T05:59:11.949Z,100.00
2023-09-13T06:01:38.828Z,100.00
2023-09-13T06:04:07.463Z,100.00
2023-09-13T06:06:35.353Z,100.00
2023-09-13T06:09:05.072Z,100.00
2023-09-13T06:11:32.718Z,100.00
2023-09-13T06:13:59.580Z,100.00
2023-09-13T06:16:26.536Z,100.00
2023-09-13T06:18:53.991Z,100.00
2023-09-13T06:21:20.746Z,100.00
2023-09-13T06:23:48.848Z,100.00
2023-09-13T06:26:15.855Z,100.00
2023-09-13T06:28:42.953Z,100.00
2023-09-13T06:31:23.063Z,100.00
2023-09-13T06:33:56.812Z,100.00
2023-09-13T06:36:24.339Z,100.00
2023-09-13T06:38:52.256Z,100.00
2023-09-13T06:41:19.104Z,100.00
2023-09-13T06:44:05.580Z,100.00
2023-09-13T06:46:37.624Z,100.00
2023-09-13T06:49:05.377Z,100.00
2023-09-13T06:54:05.886Z,100.00
2023-09-13T06:56:34.087Z,100.00
2023-09-13T06:59:06.320Z,100.00
2023-09-13T07:04:08.587Z,100.00
2023-09-13T07:06:36.356Z,100.00
2023-09-13T07:09:04.774Z,100.00
2023-09-13T07:11:31.583Z,100.00
2023-09-13T07:13:59.673Z,100.00
2023-09-13T07:16:27.440Z,100.00
2023-09-13T07:18:56.163Z,100.00
2023-09-13T07:21:23.032Z,100.00
2023-09-13T07:23:49.812Z,100.00
2023-09-13T07:26:17.143Z,100.00
2023-09-13T07:28:46.610Z,100.00
2023-09-13T07:31:14.061Z,100.00
2023-09-13T07:33:40.872Z,100.00
2023-09-13T07:36:07.694Z,100.00
2023-09-13T07:38:36.195Z,100.00
2023-09-13T07:41:03.048Z,100.00
2023-09-13T07:43:29.789Z,100.00
2023-09-13T07:45:56.720Z,100.00
2023-09-13T07:48:24.494Z,100.00
2023-09-13T07:50:51.274Z,100.00
2023-09-13T07:53:18.128Z,100.00
2023-09-13T07:55:44.813Z,100.00
2023-09-13T07:58:11.473Z,100.00
2023-09-13T08:00:38.468Z,100.00
2023-09-13T08:03:05.932Z,100.00
2023-09-13T08:05:32.824Z,100.00
2023-09-13T08:08:00.336Z,100.00
2023-09-13T08:10:27.359Z,100.00
2023-09-13T08:12:56.158Z,100.00
2023-09-13T08:15:30.818Z,100.00
2023-09-13T08:18:05.623Z,100.00
2023-09-13T08:20:32.645Z,100.00
2023-09-13T08:22:59.482Z,100.00
2023-09-13T08:25:26.553Z,100.00
2023-09-13T08:27:53.428Z,100.00
2023-09-13T08:30:23.039Z,100.00
2023-09-13T08:32:49.789Z,100.00
2023-09-13T08:35:16.974Z,100.00
2023-09-13T08:37:43.930Z,100.00
2023-09-13T08:40:12.364Z,100.00
2023-09-13T08:42:41.542Z,100.00
2023-09-13T08:45:08.498Z,100.00
2023-09-13T08:47:55.122Z,100.00
2023-09-13T08:50:27.535Z,99.67
2023-09-13T08:52:54.862Z,93.09
2023-09-13T08:55:22.128Z,92.20
2023-09-13T08:57:49.147Z,88.59
2023-09-13T09:00:17.142Z,83.54
2023-09-13T09:02:44.527Z,80.57
2023-09-13T09:05:12.832Z,79.24
2023-09-13T09:07:41.535Z,77.43
2023-09-13T09:10:12.747Z,76.53
2023-09-13T09:12:44.958Z,69.54
2023-09-13T09:15:13.073Z,71.29
2023-09-13T09:17:41.087Z,76.41
2023-09-13T09:20:08.801Z,66.26
2023-09-13T09:22:35.859Z,63.07
2023-09-13T09:25:03.917Z,61.47
2023-09-13T09:27:30.667Z,61.19
2023-09-13T09:30:01.960Z,61.95
2023-09-13T09:32:31.922Z,59.56
2023-09-13T09:35:01.968Z,58.23
2023-09-13T09:37:34.650Z,56.25
2023-09-13T09:40:02.286Z,52.95
2023-09-13T09:42:30.590Z,52.55
2023-09-13T09:44:57.717Z,51.39
2023-09-13T09:47:25.004Z,53.05
2023-09-13T09:49:52.250Z,51.98
2023-09-13T09:52:20.608Z,50.67
2023-09-13T09:54:48.950Z,51.07
2023-09-13T09:57:27.649Z,51.04
2023-09-13T09:59:54.437Z,52.01
2023-09-13T10:02:30.368Z,51.04
2023-09-13T10:05:01.076Z,51.59
2023-09-13T10:07:27.803Z,50.91
2023-09-13T10:09:56.664Z,51.63
2023-09-13T10:12:23.304Z,49.83
2023-09-13T10:14:50.016Z,46.53
2023-09-13T10:17:18.406Z,47.66
2023-09-13T10:19:48.240Z,48.21
2023-09-13T10:22:15.962Z,45.55
2023-09-13T10:24:50.422Z,45.48
2023-09-13T10:27:19.208Z,46.63
2023-09-13T10:29:48.991Z,45.85
2023-09-13T10:32:16.840Z,46.37
2023-09-13T10:35:05.157Z,47.39
2023-09-13T10:37:57.709Z,45.78
2023-09-13T10:40:26.274Z,45.48
2023-09-13T10:42:54.094Z,44.68
2023-09-13T10:45:23.897Z,44.82
2023-09-13T10:47:51.962Z,44.78
2023-09-13T10:50:23.151Z,44.71
2023-09-13T10:52:50.982Z,43.27
2023-09-13T10:55:18.082Z,42.96
2023-09-13T10:57:45.018Z,42.18
2023-09-13T11:00:13.389Z,41.66
2023-09-13T11:02:45.215Z,42.32
2023-09-13T11:05:13.020Z,42.07
2023-09-13T11:07:48.280Z,43.39
2023-09-13T11:10:19.546Z,42.16
2023-09-13T11:12:52.764Z,42.36
2023-09-13T11:15:27.080Z,42.18
2023-09-13T11:17:55.370Z,42.77
2023-09-13T11:20:26.136Z,42.90
2023-09-13T11:23:07.238Z,42.48
2023-09-13T11:25:58.418Z,43.01
2023-09-13T11:28:40.114Z,43.37
2023-09-13T11:31:11.144Z,42.45
2023-09-13T11:33:45.964Z,44.16
2023-09-13T11:36:13.107Z,43.80
2023-09-13T11:38:39.849Z,43.09
2023-09-13T11:41:06.832Z,42.63
2023-09-13T11:43:37.835Z,42.71
2023-09-13T11:46:05.778Z,43.16
2023-09-13T11:48:54.818Z,44.55
2023-09-13T11:51:25.684Z,43.87
2023-09-13T11:53:53.147Z,44.22
2023-09-13T11:56:51.256Z,45.04
2023-09-13T12:01:56.644Z,44.29
2023-09-13T12:06:59.806Z,44.41
2023-09-13T12:09:30.747Z,44.15
2023-09-13T12:12:02.009Z,44.53
2023-09-13T12:14:57.096Z,45.31
2023-09-13T12:17:20.606Z,44.92
2023-09-13T12:19:48.715Z,45.65
2023-09-13T12:22:17.493Z,46.29
2023-09-13T12:24:53.748Z,47.48
2023-09-13T12:27:20.894Z,46.43
2023-09-13T12:29:52.779Z,47.71
2023-09-13T12:32:19.495Z,46.74
2023-09-13T12:34:48.970Z,45.77
2023-09-13T12:37:16.288Z,44.52
2023-09-13T12:39:43.643Z,44.64
2023-09-13T12:42:10.624Z,45.59
2023-09-13T12:44:38.704Z,45.01
2023-09-13T12:47:06.570Z,44.93
2023-09-13T12:49:39.378Z,44.65
2023-09-13T12:52:06.507Z,43.81
2023-09-13T12:54:37.197Z,44.42
2023-09-13T12:57:04.414Z,45.48
2023-09-13T12:59:48.155Z,44.65
2023-09-13T13:02:21.156Z,45.18
2023-09-13T13:04:48.648Z,45.12
2023-09-13T13:07:24.529Z,45.86
2023-09-13T13:09:53.046Z,45.17
2023-09-13T13:12:19.863Z,43.95
2023-09-13T13:14:52.877Z,44.68
2023-09-13T13:17:26.001Z,44.60
2023-09-13T13:19:57.489Z,44.54
2023-09-13T13:22:25.905Z,44.78
2023-09-13T13:24:53.922Z,43.76
2023-09-13T13:27:21.273Z,44.47
2023-09-13T13:29:49.353Z,43.36
2023-09-13T13:32:16.648Z,43.31
2023-09-13T13:34:43.795Z,43.46
2023-09-13T13:37:14.341Z,43.55
2023-09-13T13:39:41.282Z,43.79
2023-09-13T13:42:08.057Z,43.52
2023-09-13T13:44:35.985Z,43.48
2023-09-13T13:47:09.063Z,43.70
2023-09-13T13:49:36.481Z,44.12
2023-09-13T13:52:03.476Z,43.76
2023-09-13T13:54:30.374Z,43.38
2023-09-13T13:56:57.080Z,43.85
2023-09-13T13:59:23.845Z,43.93
2023-09-13T14:01:50.654Z,44.69
2023-09-13T14:04:17.607Z,42.89
2023-09-13T14:06:47.585Z,42.75
2023-09-13T14:09:17.638Z,42.88
2023-09-13T14:11:44.394Z,42.66
2023-09-13T14:14:15.121Z,44.24
2023-09-13T14:16:45.105Z,43.88
2023-09-13T14:19:12.868Z,41.95
2023-09-13T14:21:46.396Z,43.52
2023-09-13T14:24:13.406Z,44.24
2023-09-13T14:26:40.269Z,44.67
2023-09-13T14:29:08.937Z,43.47
2023-09-13T14:31:38.388Z,43.02
2023-09-13T14:34:07.738Z,44.60
2023-09-13T14:36:34.892Z,44.47
2023-09-13T14:39:01.800Z,43.78
2023-09-13T14:41:30.188Z,43.54
2023-09-13T14:43:56.861Z,44.71
2023-09-13T14:46:23.872Z,44.36
2023-09-13T14:48:54.395Z,44.56
2023-09-13T14:51:21.862Z,45.18
2023-09-13T14:53:48.695Z,45.37
2023-09-13T14:56:15.410Z,43.81
2023-09-13T14:58:42.758Z,44.75
2023-09-13T15:01:09.801Z,44.50
2023-09-13T15:03:38.084Z,46.16
2023-09-13T15:06:05.157Z,45.92
2023-09-13T15:08:31.886Z,45.85
2023-09-13T15:10:58.732Z,46.68
2023-09-13T15:13:25.426Z,46.83
2023-09-13T15:15:52.749Z,47.25
2023-09-13T15:18:19.935Z,48.67
2023-09-13T15:20:47.634Z,47.82
2023-09-13T15:23:14.433Z,49.19
2023-09-13T15:25:41.187Z,50.44
2023-09-13T15:28:08.025Z,51.75
2023-09-13T15:30:34.796Z,53.22
2023-09-13T15:33:01.620Z,53.77
2023-09-13T15:35:28.847Z,55.00
2023-09-13T15:37:55.695Z,56.71
2023-09-13T15:40:22.429Z,58.10
2023-09-13T15:42:49.372Z,59.97
2023-09-13T15:45:19.494Z,61.76
2023-09-13T15:47:48.973Z,62.07
2023-09-13T15:50:15.782Z,64.58
2023-09-13T15:52:42.781Z,64.34
2023-09-13T15:55:10.399Z,66.84
2023-09-13T15:57:37.112Z,68.03
2023-09-13T16:00:04.665Z,68.94
2023-09-13T16:02:33.792Z,71.60
2023-09-13T16:05:00.613Z,75.22
2023-09-13T16:07:31.645Z,76.75
2023-09-13T16:09:58.342Z,78.65
2023-09-13T16:12:25.088Z,77.54
2023-09-13T16:14:51.825Z,80.32
2023-09-13T16:17:18.656Z,81.09
2023-09-13T16:19:45.475Z,84.86
2023-09-13T16:22:12.138Z,84.52
2023-09-13T16:24:38.899Z,83.00
2023-09-13T16:27:05.702Z,86.41
2023-09-13T16:29:32.921Z,89.69
2023-09-13T16:32:00.444Z,94.36
2023-09-13T16:34:27.379Z,95.53
2023-09-13T16:36:54.588Z,97.14
2023-09-13T16:39:22.129Z,98.29
2023-09-13T16:41:49.346Z,100.00
2023-09-13T16:44:16.625Z,100.00
2023-09-13T16:46:46.882Z,100.00
2023-09-13T16:49:14.439Z,100.00
2023-09-13T16:51:42.125Z,100.00
2023-09-13T16:54:08.873Z,100.00
2023-09-13T16:56:35.546Z,100.00
2023-09-13T16:59:02.235Z,100.00
2023-09-13T17:01:29.040Z,100.00
2023-09-13T17:03:55.929Z,100.00
2023-09-13T17:06:24.899Z,100.00
2023-09-13T17:08:51.537Z,100.00
2023-09-13T17:11:19.796Z,100.00
2023-09-13T17:13:47.488Z,100.00
2023-09-13T17:16:14.614Z,100.00
2023-09-13T17:18:41.384Z,100.00
2023-09-13T17:21:08.185Z,100.00
2023-09-13T17:23:34.999Z,100.00
2023-09-13T17:26:01.995Z,100.00
2023-09-13T17:28:38.047Z,100.00
2023-09-13T17:31:04.986Z,100.00
2023-09-13T17:33:31.778Z,100.00
2023-09-13T17:35:59.010Z,98.88
2023-09-13T17:38:25.774Z,98.02
2023-09-13T17:40:52.579Z,94.97
2023-09-13T17:43:19.331Z,98.41
2023-09-13T17:45:46.251Z,98.78
2023-09-13T17:48:13.043Z,98.71
2023-09-13T17:50:40.266Z,91.70
2023-09-13T17:53:07.835Z,95.34
2023-09-13T17:55:34.995Z,95.80
2023-09-13T17:58:02.085Z,93.12
2023-09-13T18:00:29.229Z,92.63
2023-09-13T18:02:56.523Z,96.29
2023-09-13T18:05:23.575Z,95.74
2023-09-13T18:07:56.122Z,85.86
2023-09-13T18:10:23.015Z,88.89
2023-09-13T18:12:49.836Z,90.78
2023-09-13T18:15:16.699Z,89.70
2023-09-13T18:17:52.649Z,90.63
2023-09-13T18:20:20.920Z,89.12
2023-09-13T18:22:47.720Z,90.81
2023-09-13T18:25:14.532Z,94.65
2023-09-13T18:27:43.898Z,100.00
2023-09-13T18:30:12.257Z,92.88
2023-09-13T18:32:39.182Z,94.18
2023-09-13T18:35:06.408Z,92.62
2023-09-13T18:37:34.853Z,96.89
2023-09-13T18:40:01.720Z,94.05
2023-09-13T18:42:28.579Z,97.46
2023-09-13T18:44:56.790Z,96.55
2023-09-13T18:47:23.793Z,96.66
2023-09-13T18:49:50.451Z,96.23
2023-09-13T18:52:17.163Z,94.53
2023-09-13T18:54:43.948Z,100.00
2023-09-13T18:57:11.274Z,99.43
2023-09-13T18:59:40.939Z,100.00
2023-09-13T19:02:12.244Z,96.38
2023-09-13T19:04:39.150Z,99.04
2023-09-13T19:07:10.264Z,98.58
2023-09-13T19:09:39.856Z,100.00
2023-09-13T19:12:07.448Z,100.00
2023-09-13T19:14:34.218Z,100.00
2023-09-13T19:17:00.961Z,100.00
2023-09-13T19:19:27.690Z,100.00
2023-09-13T19:21:54.537Z,100.00
2023-09-13T19:24:21.371Z,100.00
2023-09-13T19:26:48.201Z,100.00
2023-09-13T19:29:14.980Z,100.00
2023-09-13T19:31:41.770Z,100.00
2023-09-13T19:34:08.550Z,100.00
2023-09-13T19:36:35.313Z,100.00
2023-09-13T19:39:03.613Z,100.00
2023-09-13T19:41:30.355Z,100.00
2023-09-13T19:43:57.555Z,100.00
2023-09-13T19:46:24.524Z,100.00
2023-09-13T19:48:51.266Z,100.00
2023-09-13T19:51:18.094Z,100.00
2023-09-13T19:53:45.005Z,100.00
2023-09-13T19:56:11.882Z,100.00
2023-09-13T19:58:40.614Z,100.00
2023-09-13T20:01:09.234Z,100.00
2023-09-13T20:03:36.641Z,100.00
2023-09-13T20:06:15.361Z,100.00
2023-09-13T20:08:42.132Z,100.00
2023-09-13T20:11:09.663Z,100.00
2023-09-13T20:13:40.816Z,100.00
2023-09-13T20:16:08.229Z,100.00
2023-09-13T20:18:34.982Z,100.00
2023-09-13T20:21:04.677Z,100.00
2023-09-13T20:23:31.602Z,100.00
2023-09-13T20:25:58.749Z,100.00
2023-09-13T20:28:27.260Z,100.00
2023-09-13T20:30:55.397Z,100.00
2023-09-13T20:33:22.457Z,100.00
2023-09-13T20:35:50.038Z,100.00
2023-09-13T20:38:17.824Z,100.00
2023-09-13T20:40:44.597Z,100.00
2023-09-13T20:43:11.752Z,100.00
2023-09-13T20:45:39.424Z,100.00
2023-09-13T20:48:06.782Z,100.00
2023-09-13T20:50:33.532Z,100.00
2023-09-13T20:53:00.318Z,100.00
2023-09-13T20:55:27.085Z,100.00
2023-09-13T20:57:53.839Z,100.00
2023-09-13T21:00:20.636Z,100.00
2023-09-13T21:02:47.383Z,100.00
2023-09-13T21:05:14.075Z,100.00
2023-09-13T21:07:40.872Z,100.00
2023-09-13T21:10:07.780Z,100.00
2023-09-13T21:12:34.577Z,100.00
2023-09-13T21:15:01.226Z,100.00
2023-09-13T21:17:27.989Z,100.00
2023-09-13T21:19:55.095Z,100.00
2023-09-13T21:22:21.992Z,100.00
2023-09-13T21:24:50.376Z,100.00
2023-09-13T21:27:17.210Z,100.00
2023-09-13T21:29:44.005Z,100.00
2023-09-13T21:32:10.827Z,100.00
2023-09-13T21:34:55.021Z,100.00
2023-09-13T21:37:26.352Z,100.00
2023-09-13T21:39:53.727Z,100.00
2023-09-13T21:42:22.362Z,100.00
2023-09-13T21:44:50.904Z,100.00
2023-09-13T21:47:17.660Z,100.00
2023-09-13T21:49:44.413Z,100.00
2023-09-13T21:52:11.116Z,100.00
2023-09-13T21:54:43.745Z,100.00
2023-09-13T21:57:10.717Z,100.00
2023-09-13T21:59:37.519Z,100.00
2023-09-13T22:02:04.798Z,100.00
2023-09-13T22:04:31.992Z,100.00
2023-09-13T22:06:58.926Z,100.00
2023-09-13T22:09:25.767Z,100.00
2023-09-13T22:11:52.756Z,100.00
2023-09-13T22:14:19.492Z,100.00
2023-09-13T22:16:46.271Z,100.00
2023-09-13T22:19:13.195Z,100.00
2023-09-13T22:21:40.079Z,100.00
2023-09-13T22:24:07.024Z,100.00
2023-09-13T22:26:33.731Z,100.00
2023-09-13T22:29:00.524Z,100.00
2023-09-13T22:31:27.331Z,100.00
2023-09-13T22:33:56.432Z,100.00
2023-09-13T22:36:23.340Z,100.00
2023-09-13T22:38:58.438Z,100.00
2023-09-13T22:41:34.874Z,100.00
2023-09-13T22:44:01.769Z,100.00
2023-09-13T22:46:28.649Z,100.00
2023-09-13T22:48:55.564Z,100.00
2023-09-13T22:51:22.377Z,100.00
2023-09-13T22:53:49.225Z,100.00
2023-09-13T22:56:15.999Z,100.00
2023-09-13T22:58:43.079Z,100.00
2023-09-13T23:01:11.257Z,100.00
2023-09-13T23:03:45.232Z,100.00
2023-09-13T23:06:13.167Z,100.00
2023-09-13T23:08:40.386Z,100.00
2023-09-13T23:11:07.550Z,100.00
2023-09-13T23:13:37.522Z,100.00
2023-09-13T23:16:06.475Z,100.00
2023-09-13T23:18:35.075Z,100.00
2023-09-13T23:21:02.600Z,100.00
2023-09-13T23:23:31.064Z,100.00
2023-09-13T23:26:02.469Z,100.00
2023-09-13T23:28:29.573Z,100.00
2023-09-13T23:31:07.957Z,100.00
2023-09-13T23:33:36.581Z,100.00
2023-09-13T23:36:04.580Z,100.00
2023-09-13T23:38:32.175Z,100.00
2023-09-13T23:41:06.516Z,100.00
2023-09-13T23:43:37.231Z,100.00
2023-09-13T23:46:05.139Z,100.00
2023-09-13T23:48:33.291Z,100.00
2023-09-13T23:51:00.162Z,100.00
2023-09-13T23:53:28.243Z,100.00
2023-09-13T23:55:55.050Z,100.00
2023-09-13T23:58:21.744Z,100.00
